Time;durP1;ratioP1;P1;durP2;ratioP2;P2;SDS_P1;SDS_P2;PMS_P1;PMS_P2;Temp;Humidity;BMP_temperature;BMP_pressure;BME280_temperature;BME280_humidity;BME280_pressure;Samples;Min_cycle;Max_cycle;Signal;HPM_P1;HPM_P2
2021/05/17 00:02:12;;;;;;;4.95;0.60;;;;;;;12.08;65.48;95443.45;1726058;82;20967;-82
2021/05/17 00:04:41;;;;;;;2.17;0.68;;;;;;;12.10;65.98;95438.33;1733131;82;20991;-82
2021/05/17 00:07:09;;;;;;;2.65;0.82;;;;;;;12.12;66.06;95431.09;1730387;82;21026;-82
2021/05/17 00:09:35;;;;;;;1.70;0.60;;;;;;;12.14;65.79;95432.97;1719340;81;21034;-82
2021/05/17 00:12:01;;;;;;;1.42;0.60;;;;;;;12.18;65.47;95423.71;1725192;80;20997;-82
2021/05/17 00:14:28;;;;;;;3.35;0.75;;;;;;;12.22;64.63;95420.20;1744207;80;21001;-82
2021/05/17 00:16:54;;;;;;;2.08;0.53;;;;;;;12.26;64.98;95418.24;1743874;80;20978;-82
2021/05/17 00:19:19;;;;;;;1.00;0.40;;;;;;;12.28;65.27;95416.22;1727467;80;21338;-82
2021/05/17 00:21:46;;;;;;;5.67;0.72;;;;;;;12.29;64.91;95419.11;1745838;80;20986;-82
2021/05/17 00:24:13;;;;;;;3.45;0.65;;;;;;;12.32;65.35;95418.67;1746250;80;21251;-82
2021/05/17 00:26:39;;;;;;;1.00;0.60;;;;;;;12.34;65.05;95414.55;1740901;80;21017;-82
2021/05/17 00:29:06;;;;;;;2.37;0.57;;;;;;;12.35;65.50;95404.41;1733798;80;21041;-82
2021/05/17 00:31:33;;;;;;;1.20;0.70;;;;;;;12.35;65.21;95416.14;1742095;81;21061;-82
2021/05/17 00:33:58;;;;;;;1.87;0.62;;;;;;;12.38;64.29;95404.00;1725499;82;20962;-82
2021/05/17 00:36:24;;;;;;;2.55;0.65;;;;;;;12.42;64.87;95403.06;1751493;82;20926;-82
2021/05/17 00:38:51;;;;;;;1.60;0.68;;;;;;;12.42;64.58;95409.06;1738257;82;21093;-82
2021/05/17 00:41:17;;;;;;;1.17;0.55;;;;;;;12.44;64.47;95399.22;1748970;81;20957;-82
2021/05/17 00:43:42;;;;;;;1.92;0.60;;;;;;;12.47;64.45;95394.88;1741912;82;21041;-82
2021/05/17 00:46:10;;;;;;;1.85;0.50;;;;;;;12.48;65.12;95404.28;1725592;82;20978;-82
2021/05/17 00:48:37;;;;;;;1.67;0.57;;;;;;;12.48;64.89;95406.09;1725605;80;21026;-82
2021/05/17 00:51:04;;;;;;;0.80;0.40;;;;;;;12.48;64.69;95397.77;1725154;80;21089;-82
2021/05/17 00:53:32;;;;;;;1.72;0.50;;;;;;;12.51;64.37;95397.33;1728401;80;20994;-82
2021/05/17 00:55:57;;;;;;;2.45;0.60;;;;;;;12.56;63.98;95399.30;1744472;82;20994;-82
2021/05/17 00:58:24;;;;;;;1.25;0.40;;;;;;;12.58;63.85;95396.77;1725262;80;20930;-82
2021/05/17 01:00:49;;;;;;;2.30;0.55;;;;;;;12.59;63.95;95395.75;1749906;80;21287;-82
2021/05/17 01:03:15;;;;;;;2.33;0.60;;;;;;;12.59;63.86;95399.66;1754321;82;20922;-82
2021/05/17 01:05:41;;;;;;;2.27;0.60;;;;;;;12.59;64.19;95392.34;1704978;82;20971;-82
2021/05/17 01:08:09;;;;;;;0.53;0.50;;;;;;;12.53;64.64;95395.33;1726519;82;21018;-82
2021/05/17 01:10:41;;;;;;;2.37;0.50;;;;;;;12.47;64.66;95390.97;1730549;81;20987;-82
2021/05/17 01:13:07;;;;;;;;;;;;;;;12.42;64.38;95380.41;1719201;81;20931;-82
2021/05/17 01:15:33;;;;;;;0.50;0.20;;;;;;;12.38;64.41;95368.05;1712362;81;20136;-82
2021/05/17 01:18:00;;;;;;;2.15;0.55;;;;;;;12.32;64.81;95365.27;1711107;82;21308;-82
2021/05/17 01:20:30;;;;;;;1.35;0.37;;;;;;;12.27;65.19;95357.83;1713308;81;21002;-82
2021/05/17 01:25:52;;;;;;;0.93;0.30;;;;;;;12.27;64.93;95348.72;1718444;81;20999;-82
2021/05/17 01:28:22;;;;;;;0.88;0.40;;;;;;;12.27;64.58;95343.00;1726318;81;21011;-82
2021/05/17 01:30:50;;;;;;;0.62;0.62;;;;;;;12.29;64.70;95341.47;1713900;81;20919;-82
2021/05/17 01:33:16;;;;;;;0.30;0.20;;;;;;;12.30;64.61;95346.97;1702141;81;20947;-82
2021/05/17 01:35:41;;;;;;;1.12;0.37;;;;;;;12.32;64.12;95352.25;1728631;81;21037;-82
2021/05/17 01:38:08;;;;;;;0.30;0.30;;;;;;;12.36;63.73;95346.59;1716211;81;21066;-82
2021/05/17 01:40:37;;;;;;;0.95;0.30;;;;;;;12.39;63.84;95338.38;1712914;81;20943;-82
2021/05/17 01:43:03;;;;;;;2.72;0.35;;;;;;;12.42;63.85;95340.54;1710938;82;21378;-82
2021/05/17 01:45:30;;;;;;;0.40;0.30;;;;;;;12.45;63.19;95338.80;1712071;81;21034;-82
2021/05/17 01:47:57;;;;;;;2.40;0.20;;;;;;;12.46;64.00;95320.84;1726977;81;20959;-81
2021/05/17 01:50:23;;;;;;;1.75;0.30;;;;;;;12.44;64.16;95324.97;1696485;81;21069;-82
2021/05/17 01:52:49;;;;;;;0.40;0.13;;;;;;;12.42;64.50;95320.48;1654889;84;21311;-82
2021/05/17 01:55:16;;;;;;;1.12;0.20;;;;;;;12.39;64.53;95313.12;1728442;81;21267;-82
2021/05/17 01:57:42;;;;;;;0.42;0.20;;;;;;;12.38;64.43;95310.73;1693777;81;21264;-82
2021/05/17 02:00:11;;;;;;;0.30;0.20;;;;;;;12.43;65.25;95310.86;1712153;82;20923;-82
2021/05/17 02:02:37;;;;;;;2.33;0.30;;;;;;;12.44;64.44;95303.33;1710720;81;20939;-82
2021/05/17 02:05:05;;;;;;;0.23;0.20;;;;;;;12.48;65.09;95303.17;1711283;82;21362;-82
2021/05/17 02:07:30;;;;;;;1.25;0.30;;;;;;;12.47;65.27;95299.78;1712302;81;20986;-82
2021/05/17 02:09:56;;;;;;;0.25;0.20;;;;;;;12.47;64.93;95306.30;1726294;82;21011;-82
2021/05/17 02:12:23;;;;;;;1.12;0.68;;;;;;;12.48;64.81;95310.48;1752870;80;21030;-82
2021/05/17 02:14:53;;;;;;;1.22;0.95;;;;;;;12.47;65.46;95329.73;1731302;80;20957;-82
2021/05/17 02:17:22;;;;;;;2.83;1.25;;;;;;;12.36;66.45;95341.39;1726553;80;21006;-82
2021/05/17 02:19:48;;;;;;;1.70;1.00;;;;;;;12.22;66.70;95347.27;1740799;80;20974;-82
2021/05/17 02:22:19;;;;;;;3.05;1.00;;;;;;;12.14;66.67;95362.66;1733124;80;21034;-82
2021/05/17 02:24:46;;;;;;;2.20;1.22;;;;;;;12.14;67.39;95371.78;1741782;82;20981;-82
2021/05/17 02:27:14;;;;;;;3.72;1.47;;;;;;;12.13;67.72;95375.91;1728061;80;21334;-82
2021/05/17 02:29:40;;;;;;;1.90;1.42;;;;;;;12.07;68.05;95379.38;1725820;80;21057;-82
2021/05/17 02:32:07;;;;;;;3.52;1.80;;;;;;;12.01;67.86;95382.31;1742182;80;20958;-82
2021/05/17 02:34:34;;;;;;;3.02;1.70;;;;;;;11.99;67.97;95381.73;1748561;80;20982;-82
2021/05/17 02:37:01;;;;;;;2.95;1.40;;;;;;;11.93;68.14;95380.80;1725588;80;21258;-82
2021/05/17 02:39:27;;;;;;;2.17;1.35;;;;;;;11.86;68.38;95380.03;1744234;80;21302;-82
2021/05/17 02:41:55;;;;;;;3.08;1.65;;;;;;;11.80;68.83;95381.41;1751057;82;21010;-82
2021/05/17 02:44:21;;;;;;;3.42;1.35;;;;;;;11.78;68.82;95388.10;1741126;80;20994;-82
2021/05/17 02:46:47;;;;;;;3.47;1.80;;;;;;;11.80;68.90;95390.02;1726754;80;21097;-82
2021/05/17 02:49:13;;;;;;;3.98;1.40;;;;;;;11.78;69.05;95386.80;1708401;82;20989;-82
2021/05/17 02:51:41;;;;;;;3.37;1.50;;;;;;;11.78;69.39;95386.00;1738954;80;21056;-82
2021/05/17 02:54:22;;;;;;;3.58;2.22;;;;;;;11.76;70.01;95387.52;1728597;80;20982;-82
2021/05/17 02:57:02;;;;;;;3.75;1.92;;;;;;;11.76;70.05;95382.82;1741897;82;20946;-82
2021/05/17 02:59:39;;;;;;;2.27;1.30;;;;;;;11.72;69.98;95385.06;1745245;80;21040;-82
2021/05/17 03:02:08;;;;;;;1.85;1.35;;;;;;;11.71;70.29;95382.96;1724276;80;21002;-82
2021/05/17 03:04:37;;;;;;;2.47;1.40;;;;;;;11.72;70.15;95385.06;1695023;82;21001;-82
2021/05/17 03:07:10;;;;;;;3.55;1.37;;;;;;;11.73;70.32;95389.25;1726503;80;21017;-82
2021/05/17 03:09:36;;;;;;;2.60;1.40;;;;;;;11.75;70.65;95385.93;1727016;80;21034;-82
2021/05/17 03:12:03;;;;;;;3.77;1.22;;;;;;;11.76;70.70;95388.03;1741041;81;21296;-82
2021/05/17 03:14:30;;;;;;;3.37;1.20;;;;;;;11.76;70.89;95382.31;1720998;81;20963;-82
2021/05/17 03:16:58;;;;;;;3.67;1.27;;;;;;;11.74;71.20;95385.64;1715651;81;21272;-82
2021/05/17 03:19:23;;;;;;;2.77;0.98;;;;;;;11.68;71.46;95385.97;1725621;82;20967;-82
2021/05/17 03:21:52;;;;;;;1.80;1.10;;;;;;;11.68;71.43;95384.66;1701537;81;21077;-82
2021/05/17 03:24:18;;;;;;;2.65;1.12;;;;;;;11.73;71.39;95394.45;1698769;82;21054;-82
2021/05/17 03:26:43;;;;;;;2.77;1.12;;;;;;;11.76;71.30;95392.73;1736092;81;21090;-82
2021/05/17 03:29:12;;;;;;;2.80;0.85;;;;;;;11.79;71.39;95394.13;1733045;81;21047;-82
2021/05/17 03:31:37;;;;;;;2.62;0.90;;;;;;;11.78;71.41;95395.91;1722724;82;21264;-82
2021/05/17 03:34:04;;;;;;;2.00;1.10;;;;;;;11.79;71.40;95396.73;1696504;82;20955;-82
2021/05/17 03:36:30;;;;;;;3.67;1.27;;;;;;;11.81;71.35;95390.30;1731888;81;20983;-82
2021/05/17 03:38:55;;;;;;;3.08;0.93;;;;;;;11.85;71.27;95384.16;1730251;81;21035;-82
2021/05/17 03:41:21;;;;;;;1.37;0.70;;;;;;;11.89;71.10;95378.34;1720248;81;21007;-82
2021/05/17 03:43:47;;;;;;;2.25;0.90;;;;;;;11.94;71.37;95375.88;1728885;81;21062;-82
2021/05/17 03:46:13;;;;;;;2.20;0.80;;;;;;;11.98;71.60;95374.94;1715966;81;21375;-82
2021/05/17 03:48:42;;;;;;;2.77;0.78;;;;;;;12.01;71.61;95379.20;1728150;82;20959;-82
2021/05/17 03:51:09;;;;;;;2.77;0.90;;;;;;;12.05;71.72;95375.69;1733740;81;21071;-82
2021/05/17 03:53:35;;;;;;;1.35;0.90;;;;;;;12.08;71.67;95379.66;1741024;81;21051;-82
2021/05/17 03:56:01;;;;;;;2.30;1.57;;;;;;;12.11;71.76;95383.13;1717102;81;21002;-82
2021/05/17 03:58:26;;;;;;;3.35;2.60;;;;;;;12.15;71.73;95386.89;1720351;82;20947;-82
2021/05/17 04:00:54;;;;;;;7.42;2.92;;;;;;;12.11;71.42;95388.34;1725627;81;20939;-82
2021/05/17 04:03:21;;;;;;;3.95;2.22;;;;;;;12.06;71.36;95388.20;1709055;82;21050;-82
2021/05/17 04:06:08;;;;;;;4.20;2.65;;;;;;;12.06;71.28;95387.69;1728900;81;20970;-82
2021/05/17 04:13:44;;;;;;;5.08;2.92;;;;;;;12.10;71.12;95388.05;1695747;83;21024;-82
2021/05/17 04:16:10;;;;;;;4.45;2.58;;;;;;;12.17;71.41;95393.48;1683043;82;20951;-82
2021/05/17 04:18:35;;;;;;;5.90;2.77;;;;;;;12.26;71.33;95398.70;1738423;81;20967;-82
2021/05/17 04:21:01;;;;;;;5.42;2.92;;;;;;;12.35;71.62;95399.20;1717325;81;20959;-82
2021/05/17 04:23:29;;;;;;;4.05;2.80;;;;;;;12.40;71.15;95409.00;1715425;81;21006;-82
2021/05/17 04:25:54;;;;;;;6.12;2.77;;;;;;;12.39;70.53;95407.41;1716209;81;21002;-82
2021/05/17 04:28:21;;;;;;;6.87;3.17;;;;;;;12.37;70.77;95408.93;1729120;81;21011;-82
2021/05/17 04:30:47;;;;;;;5.20;3.42;;;;;;;12.38;70.71;95407.91;1742587;81;21280;-82
2021/05/17 04:33:12;;;;;;;6.53;4.45;;;;;;;12.42;70.64;95407.77;1734139;81;20971;-82
2021/05/17 04:35:38;;;;;;;5.00;3.95;;;;;;;12.38;70.59;95409.72;1732789;81;20963;-82
2021/05/17 04:38:04;;;;;;;5.53;3.90;;;;;;;12.37;70.63;95407.63;1716967;81;21224;-82
2021/05/17 04:40:30;;;;;;;7.53;3.70;;;;;;;12.41;70.70;95409.28;1717600;82;21019;-82
2021/05/17 04:42:56;;;;;;;6.83;3.83;;;;;;;12.43;71.24;95408.05;1714841;81;21006;-82
2021/05/17 04:45:24;;;;;;;5.17;3.90;;;;;;;12.47;70.91;95410.51;1714805;82;21038;-82
2021/05/17 04:47:51;;;;;;;5.67;3.60;;;;;;;12.47;70.83;95417.02;1714215;82;20980;-82
2021/05/17 04:50:17;;;;;;;6.33;4.65;;;;;;;12.48;71.19;95416.00;1701218;82;20972;-81
2021/05/17 04:52:42;;;;;;;7.10;4.70;;;;;;;12.47;71.01;95421.44;1669468;83;21104;-82
2021/05/17 04:55:10;;;;;;;6.50;4.70;;;;;;;12.46;71.35;95421.15;1687676;83;21345;-82
2021/05/17 04:57:35;;;;;;;8.35;5.85;;;;;;;12.45;71.36;95419.55;1668829;83;21001;-82
2021/05/17 05:00:04;;;;;;;8.60;5.97;;;;;;;12.43;71.52;95413.27;1687784;83;21002;-82
2021/05/17 05:02:31;;;;;;;6.70;5.05;;;;;;;12.43;71.37;95419.78;1703308;84;21038;-82
2021/05/17 05:04:56;;;;;;;7.37;5.30;;;;;;;12.45;71.39;95430.77;1702939;84;21065;-82
2021/05/17 05:07:22;;;;;;;7.22;5.25;;;;;;;12.45;71.61;95426.86;1702792;83;21362;-83
2021/05/17 05:09:48;;;;;;;7.20;5.37;;;;;;;12.45;71.84;95427.37;1677424;83;21038;-82
2021/05/17 05:12:13;;;;;;;7.95;5.20;;;;;;;12.43;71.88;95423.69;1661337;85;21036;-82
2021/05/17 05:14:40;;;;;;;7.17;5.72;;;;;;;12.44;71.96;95427.08;1710210;82;21016;-82
2021/05/17 05:17:05;;;;;;;7.80;5.60;;;;;;;12.40;71.80;95424.62;1702828;84;21041;-82
2021/05/17 05:19:31;;;;;;;7.25;5.30;;;;;;;12.40;71.99;95423.33;1673404;84;21045;-82
2021/05/17 05:21:57;;;;;;;7.92;5.05;;;;;;;12.43;72.23;95428.09;1684060;84;21071;-81
2021/05/17 05:24:24;;;;;;;6.40;5.12;;;;;;;12.48;72.71;95424.33;1687414;84;20972;-83
2021/05/17 05:29:39;;;;;;;6.72;5.00;;;;;;;12.45;72.74;95415.65;1684948;84;20950;-83
2021/05/17 05:32:10;;;;;;;8.53;5.62;;;;;;;12.42;73.11;95414.78;1685357;84;21274;-83
2021/05/17 05:34:29;;;;;;;5.92;5.15;;;;;;;12.38;73.31;95414.94;1660467;84;20977;-82
2021/05/17 05:36:58;;;;;;;5.35;4.55;;;;;;;12.35;73.47;95417.44;1686846;84;21326;-82
2021/05/17 05:39:23;;;;;;;5.83;5.03;;;;;;;12.37;73.50;95417.25;1686686;84;21330;-82
2021/05/17 05:41:50;;;;;;;6.87;5.08;;;;;;;12.40;73.59;95413.70;1687322;84;20985;-82
2021/05/17 05:44:16;;;;;;;6.53;5.12;;;;;;;12.43;73.69;95422.89;1670594;84;21022;-82
2021/05/17 05:46:41;;;;;;;6.70;5.62;;;;;;;12.44;74.05;95423.97;1680220;84;21303;-82
2021/05/17 05:49:08;;;;;;;7.80;5.62;;;;;;;12.46;74.01;95416.73;1658824;84;20957;-83
2021/05/17 05:51:34;;;;;;;6.05;5.28;;;;;;;12.50;73.89;95419.19;1678253;83;21296;-82
2021/05/17 05:54:01;;;;;;;7.37;5.70;;;;;;;12.54;74.01;95419.06;1659149;84;21121;-82
2021/05/17 05:56:27;;;;;;;8.75;5.45;;;;;;;12.58;74.09;95418.91;1668128;84;21274;-82
2021/05/17 05:58:53;;;;;;;6.90;5.87;;;;;;;12.62;74.29;95417.97;1693032;82;20957;-82
2021/05/17 06:01:19;;;;;;;7.20;5.42;;;;;;;12.63;74.45;95414.34;1678502;83;21026;-82
2021/05/17 06:03:45;;;;;;;7.05;5.83;;;;;;;12.62;74.52;95409.64;1678418;85;20949;-82
2021/05/17 06:06:11;;;;;;;8.73;5.60;;;;;;;12.60;74.59;95412.18;1684054;83;20994;-82
2021/05/17 06:08:38;;;;;;;7.42;6.22;;;;;;;12.63;74.44;95406.52;1701181;84;21266;-82
2021/05/17 06:11:04;;;;;;;6.53;5.40;;;;;;;12.68;74.46;95408.47;1657736;84;21058;-82
2021/05/17 06:13:31;;;;;;;7.90;6.47;;;;;;;12.71;74.62;95414.58;1628197;86;21057;-82
2021/05/17 06:15:58;;;;;;;8.18;5.62;;;;;;;12.73;74.57;95408.63;1681046;83;20968;-82
2021/05/17 06:18:24;;;;;;;6.95;6.08;;;;;;;12.76;74.97;95412.10;1679093;83;20989;-82
2021/05/17 06:20:50;;;;;;;8.45;6.58;;;;;;;12.79;74.71;95408.55;1669864;83;21369;-82
2021/05/17 06:23:16;;;;;;;7.20;5.92;;;;;;;12.75;74.76;95407.39;1669339;83;21057;-82
2021/05/17 06:25:42;;;;;;;6.67;6.05;;;;;;;12.67;74.85;95422.52;1701586;83;20962;-82
2021/05/17 06:28:10;;;;;;;9.55;6.12;;;;;;;12.65;75.22;95418.83;1688894;83;21025;-82
2021/05/17 06:31:36;;;;;;;10.85;6.30;;;;;;;12.63;75.08;95417.75;1695740;83;20958;-83
2021/05/17 06:33:14;;;;;;;7.00;6.03;;;;;;;12.64;75.00;95415.94;1681104;83;21022;-82
2021/05/17 06:35:45;;;;;;;12.23;6.33;;;;;;;12.67;75.02;95411.59;1686090;83;20945;-82
2021/05/17 06:38:08;;;;;;;8.80;6.65;;;;;;;12.71;75.41;95408.86;1671347;83;21037;-82
2021/05/17 06:40:33;;;;;;;6.60;5.78;;;;;;;12.77;75.60;95404.06;1683661;85;20978;-82
2021/05/17 06:42:59;;;;;;;8.10;6.12;;;;;;;12.71;75.87;95403.64;1681675;83;21278;-82
2021/05/17 06:45:26;;;;;;;7.72;5.60;;;;;;;12.69;76.07;95393.95;1676002;83;20984;-82
2021/05/17 06:47:52;;;;;;;6.67;5.83;;;;;;;12.76;76.19;95401.17;1678226;83;21069;-82
2021/05/17 06:50:18;;;;;;;8.35;6.12;;;;;;;12.82;76.37;95400.79;1698951;84;20981;-83
2021/05/17 06:52:45;;;;;;;9.18;5.65;;;;;;;12.90;76.82;95402.60;1677023;84;21070;-82
2021/05/17 06:55:19;;;;;;;8.80;5.90;;;;;;;13.00;76.58;95396.84;1673282;83;20953;-82
2021/05/17 07:00:31;;;;;;;6.72;5.85;;;;;;;13.18;76.47;95389.55;1675703;83;20981;-82
2021/05/17 07:03:05;;;;;;;9.38;7.03;;;;;;;13.26;76.50;95384.52;1695024;84;21036;-82
2021/05/17 07:05:31;;;;;;;8.08;6.72;;;;;;;13.29;76.31;95387.47;1696293;83;20957;-82
2021/05/17 07:13:15;;;;;;;4.53;2.60;;;;;;;13.39;76.33;95390.85;1711175;81;20991;-82
2021/05/17 07:15:40;;;;;;;1.27;0.70;;;;;;;13.44;76.59;95387.84;1691821;82;20946;-82
2021/05/17 07:18:09;;;;;;;1.62;1.00;;;;;;;13.47;76.53;95385.30;1711992;81;20970;-82
2021/05/17 07:23:37;;;;;;;2.05;0.82;;;;;;;13.47;76.76;95386.60;1694516;82;21006;-82
2021/05/17 07:25:47;;;;;;;2.08;0.90;;;;;;;13.51;76.53;95381.24;1715682;81;20951;-82
2021/05/17 07:28:13;;;;;;;3.62;2.27;;;;;;;13.58;76.31;95381.92;1711493;81;21045;-82
2021/05/17 07:30:39;;;;;;;5.70;4.83;;;;;;;13.62;76.42;95383.06;1706804;82;20958;-83
2021/05/17 07:33:04;;;;;;;10.58;9.48;;;;;;;13.57;76.54;95385.55;1731428;81;21299;-82
2021/05/17 07:35:30;;;;;;;7.87;5.80;;;;;;;13.54;76.46;95386.02;1737858;81;20967;-82
2021/05/17 07:37:56;;;;;;;5.10;3.35;;;;;;;13.56;76.46;95385.78;1736108;81;20951;-82
2021/05/17 07:40:21;;;;;;;3.75;2.80;;;;;;;13.54;76.17;95378.69;1732227;82;21326;-82
2021/05/17 07:42:47;;;;;;;1.92;1.00;;;;;;;13.56;76.15;95372.73;1714520;81;21003;-82
2021/05/17 07:45:13;;;;;;;3.12;1.30;;;;;;;13.58;76.28;95367.57;1714707;81;20915;-82
2021/05/17 07:47:39;;;;;;;2.98;1.80;;;;;;;13.62;76.23;95375.23;1719187;82;21050;-82
2021/05/17 07:50:05;;;;;;;7.28;2.67;;;;;;;13.64;76.27;95382.33;1737453;82;21287;-82
2021/05/17 07:52:31;;;;;;;3.62;1.80;;;;;;;13.61;76.61;95376.25;1736662;81;21021;-82
2021/05/17 07:54:58;;;;;;;3.42;1.57;;;;;;;13.62;76.87;95379.14;1723363;82;21058;-82
2021/05/17 07:57:24;;;;;;;2.85;1.75;;;;;;;13.65;76.77;95372.16;1730918;81;21267;-82
2021/05/17 07:59:50;;;;;;;3.52;2.02;;;;;;;13.75;76.58;95374.23;1712732;81;20994;-82
2021/05/17 08:02:21;;;;;;;3.80;3.40;;;;;;;13.80;76.49;95369.91;1695765;82;21051;-82
2021/05/17 08:04:43;;;;;;;5.05;3.87;;;;;;;13.80;76.62;95371.73;1718430;81;21038;-82
2021/05/17 08:07:09;;;;;;;4.03;2.87;;;;;;;13.74;76.81;95372.13;1720361;81;21003;-82
2021/05/17 08:09:35;;;;;;;2.98;1.77;;;;;;;13.70;76.36;95368.39;1734414;81;21228;-82
2021/05/17 08:12:01;;;;;;;4.50;1.42;;;;;;;13.69;75.86;95375.94;1713032;81;21002;-82
2021/05/17 08:14:27;;;;;;;2.12;1.90;;;;;;;13.71;75.46;95371.80;1715245;81;21010;-82
2021/05/17 08:16:54;;;;;;;2.87;1.90;;;;;;;13.72;75.73;95378.09;1741096;81;21042;-82
2021/05/17 08:19:19;;;;;;;2.17;1.60;;;;;;;13.74;75.90;95372.64;1743924;81;21288;-82
2021/05/17 08:21:45;;;;;;;3.65;1.60;;;;;;;13.76;75.90;95371.39;1722652;81;20951;-82
2021/05/17 08:24:11;;;;;;;3.47;1.77;;;;;;;13.74;75.93;95375.25;1725242;82;20990;-82
2021/05/17 08:26:37;;;;;;;2.77;1.87;;;;;;;13.73;75.68;95374.45;1725031;82;21018;-82
2021/05/17 08:29:05;;;;;;;2.15;1.45;;;;;;;13.73;75.47;95374.45;1724290;81;21042;-82
2021/05/17 08:31:31;;;;;;;2.95;1.72;;;;;;;13.74;75.47;95373.95;1733581;81;21002;-82
2021/05/17 08:33:57;;;;;;;3.62;1.82;;;;;;;13.69;75.33;95377.24;1719501;81;20947;-82
2021/05/17 08:36:23;;;;;;;1.98;1.42;;;;;;;13.67;75.36;95375.37;1737383;81;20950;-82
2021/05/17 08:38:48;;;;;;;2.33;1.70;;;;;;;13.60;75.44;95371.26;1734130;82;21014;-82
2021/05/17 08:41:14;;;;;;;2.33;1.50;;;;;;;13.56;75.68;95368.82;1721962;82;20954;-82
2021/05/17 08:43:42;;;;;;;2.45;1.55;;;;;;;13.56;75.79;95370.92;1735937;81;20950;-82
2021/05/17 08:46:10;;;;;;;2.83;1.25;;;;;;;13.59;75.73;95368.36;1718698;81;21046;-82
2021/05/17 08:48:48;;;;;;;1.80;1.35;;;;;;;13.58;75.73;95367.57;1722697;81;21026;-83
2021/05/17 08:51:22;;;;;;;2.60;2.05;;;;;;;13.46;75.79;95361.02;1737389;81;20951;-83
2021/05/17 08:53:50;;;;;;;5.22;2.35;;;;;;;13.43;76.55;95365.39;1721615;82;21042;-82
2021/05/17 08:56:18;;;;;;;5.20;3.90;;;;;;;13.38;76.87;95366.58;1726446;81;20982;-82
2021/05/17 08:58:43;;;;;;;8.30;5.40;;;;;;;13.37;76.98;95368.10;1743677;82;20971;-82
2021/05/17 09:01:09;;;;;;;6.00;5.37;;;;;;;13.40;77.24;95372.88;1739726;81;21037;-82
2021/05/17 09:03:35;;;;;;;8.43;6.00;;;;;;;13.46;77.19;95366.23;1725880;82;20974;-82
2021/05/17 09:06:09;;;;;;;11.15;9.83;;;;;;;13.51;77.04;95365.59;1735684;81;21011;-82
2021/05/17 09:08:44;;;;;;;12.30;11.08;;;;;;;13.51;76.80;95362.98;1726227;81;21312;-83
2021/05/17 09:11:10;;;;;;;9.80;8.80;;;;;;;13.37;76.37;95362.89;1739419;81;21078;-82
2021/05/17 09:13:36;;;;;;;8.53;7.40;;;;;;;13.39;76.55;95358.23;1702427;83;21280;-83
2021/05/17 09:16:02;;;;;;;6.58;4.53;;;;;;;13.43;76.79;95352.84;1743036;80;20962;-82
2021/05/17 09:18:30;;;;;;;5.05;4.55;;;;;;;13.47;76.42;95351.37;1744877;80;20952;-83
2021/05/17 09:21:01;;;;;;;6.83;5.47;;;;;;;13.45;76.30;95342.98;1725043;80;21002;-82
2021/05/17 09:23:31;;;;;;;8.38;5.17;;;;;;;13.47;76.84;95340.42;1746471;80;21371;-83
2021/05/17 09:26:17;;;;;;;6.42;4.28;;;;;;;13.44;76.96;95344.80;1725512;80;20983;-83
2021/05/17 09:28:51;;;;;;;4.47;3.22;;;;;;;13.43;77.41;95342.41;1725487;82;21445;-82
2021/05/17 09:31:21;;;;;;;9.63;5.90;;;;;;;13.44;77.01;95345.30;1726957;80;21287;-82
2021/05/17 09:33:50;;;;;;;10.55;7.58;;;;;;;13.45;77.16;95352.91;1725742;80;20970;-82
2021/05/17 09:36:33;;;;;;;9.45;6.22;;;;;;;13.51;77.41;95355.14;1725448;80;20982;-82
2021/05/17 09:39:13;;;;;;;26.27;23.40;;;;;;;13.46;76.90;95352.39;1725678;82;21239;-82
2021/05/17 09:41:55;;;;;;;21.68;15.60;;;;;;;13.36;76.96;95349.56;1752744;82;20938;-83
2021/05/17 09:44:21;;;;;;;30.32;27.37;;;;;;;13.36;77.46;95345.64;1734636;82;20966;-82
2021/05/17 09:47:08;;;;;;;18.73;16.93;;;;;;;13.41;77.75;95350.47;1729734;80;21303;-82
2021/05/17 09:49:41;;;;;;;13.50;12.20;;;;;;;13.49;77.66;95353.25;1751075;80;20911;-82
2021/05/17 09:52:30;;;;;;;8.48;6.70;;;;;;;13.54;77.73;95355.20;1753672;81;21247;-83
2021/05/17 09:55:08;;;;;;;9.75;7.85;;;;;;;13.60;78.17;95355.09;1739332;82;21018;-82
2021/05/17 09:57:40;;;;;;;8.55;6.95;;;;;;;13.62;77.92;95353.05;1717767;82;20962;-82
2021/05/17 10:00:16;;;;;;;10.15;6.05;;;;;;;13.66;78.19;95350.77;1740246;82;21216;-82
2021/05/17 10:02:50;;;;;;;8.95;6.22;;;;;;;13.68;78.32;95356.08;1730747;80;21022;-82
2021/05/17 10:05:31;;;;;;;8.88;5.55;;;;;;;13.61;77.36;95357.19;1736938;82;20959;-82
2021/05/17 10:07:59;;;;;;;9.20;7.25;;;;;;;13.57;77.59;95351.63;1732649;80;20962;-82
2021/05/17 10:10:27;;;;;;;9.70;7.55;;;;;;;13.50;77.34;95350.92;1741180;82;21287;-82
2021/05/17 10:12:54;;;;;;;9.80;7.28;;;;;;;13.51;77.55;95349.42;1713604;81;21006;-82
2021/05/17 10:15:22;;;;;;;8.50;7.62;;;;;;;13.50;77.61;95349.61;1729648;81;21010;-82
2021/05/17 10:17:48;;;;;;;8.93;6.58;;;;;;;13.52;77.77;95346.30;1712798;81;21058;-83
2021/05/17 10:20:20;;;;;;;8.38;6.62;;;;;;;13.52;77.43;95355.43;1714601;81;21018;-82
2021/05/17 10:22:46;;;;;;;10.40;7.72;;;;;;;13.50;77.58;95348.31;1721114;81;20926;-83
2021/05/17 10:25:15;;;;;;;8.55;6.62;;;;;;;13.56;77.78;95347.43;1722277;81;21159;-82
2021/05/17 10:27:46;;;;;;;8.70;6.55;;;;;;;13.55;77.65;95345.84;1712489;82;20967;-82
2021/05/17 10:30:13;;;;;;;13.22;6.45;;;;;;;13.59;77.92;95345.67;1707459;81;21008;-82
2021/05/17 10:32:58;;;;;;;8.33;6.15;;;;;;;13.66;77.72;95345.04;1728067;81;20947;-82
2021/05/17 10:35:37;;;;;;;6.60;5.25;;;;;;;13.73;77.72;95338.42;1727754;81;20948;-83
2021/05/17 10:38:34;;;;;;;10.53;6.62;;;;;;;13.77;77.65;95343.47;1711770;81;20959;-82
2021/05/17 10:46:48;;;;;;;8.55;7.35;;;;;;;13.73;77.63;95334.00;1739096;81;20947;-83
2021/05/17 10:49:35;;;;;;;10.38;7.90;;;;;;;13.77;77.51;95341.66;1719876;81;20970;-82
2021/05/17 10:52:10;;;;;;;10.28;8.38;;;;;;;13.78;77.04;95338.02;1718355;81;20951;-82
2021/05/17 10:54:45;;;;;;;11.05;8.45;;;;;;;13.75;77.51;95339.78;1718935;81;20983;-82
2021/05/17 10:57:30;;;;;;;10.45;8.18;;;;;;;13.72;77.60;95338.94;1722793;81;20959;-82
2021/05/17 11:02:39;;;;;;;9.48;8.35;;;;;;;13.68;77.56;95335.19;1721048;81;21038;-82
2021/05/17 11:05:20;;;;;;;9.70;8.70;;;;;;;13.71;77.53;95334.73;1732796;81;21011;-82
2021/05/17 11:08:02;;;;;;;8.05;6.95;;;;;;;13.70;77.76;95329.74;1712177;81;20963;-82
2021/05/17 11:10:37;;;;;;;9.45;7.80;;;;;;;13.69;77.52;95332.07;1740463;82;20991;-82
2021/05/17 11:13:21;;;;;;;9.38;8.45;;;;;;;13.68;77.61;95332.58;1727777;80;21346;-82
2021/05/17 11:16:04;;;;;;;7.35;6.25;;;;;;;13.68;77.83;95329.97;1724596;80;20962;-82
2021/05/17 11:18:44;;;;;;;7.53;5.90;;;;;;;13.70;77.64;95324.52;1749800;80;21240;-82
2021/05/17 11:21:13;;;;;;;12.03;8.30;;;;;;;13.67;77.48;95324.47;1725749;82;21278;-82
2021/05/17 11:23:45;;;;;;;10.53;6.83;;;;;;;13.70;78.07;95324.02;1726023;80;20923;-82
2021/05/17 11:26:12;;;;;;;9.05;7.25;;;;;;;13.67;77.85;95316.64;1725132;82;21010;-82
2021/05/17 11:28:45;;;;;;;8.98;6.15;;;;;;;13.72;78.29;95319.87;1699259;82;20978;-82
2021/05/17 11:31:35;;;;;;;6.97;5.25;;;;;;;13.76;78.32;95325.70;1746230;80;20950;-82
2021/05/17 11:34:00;;;;;;;6.22;5.30;;;;;;;13.75;78.17;95318.10;1724742;80;20998;-82
2021/05/17 11:36:43;;;;;;;7.62;5.12;;;;;;;13.80;78.12;95319.00;1732517;80;20966;-82
2021/05/17 11:39:25;;;;;;;7.17;5.45;;;;;;;13.82;78.20;95323.48;1734442;80;21033;-82
2021/05/17 11:42:03;;;;;;;7.15;5.92;;;;;;;13.79;78.02;95321.84;1725350;82;20974;-82
2021/05/17 11:45:25;;;;;;;6.47;5.80;;;;;;;13.63;77.92;95318.59;1725681;82;20992;-82
2021/05/17 11:47:12;;;;;;;8.23;5.92;;;;;;;13.59;78.41;95318.27;1726712;80;21121;-82
2021/05/17 11:49:42;;;;;;;8.90;6.47;;;;;;;13.66;78.71;95319.45;1725343;80;20958;-82
2021/05/17 11:52:13;;;;;;;8.73;6.90;;;;;;;13.69;78.56;95318.51;1724809;80;21306;-82
2021/05/17 11:54:46;;;;;;;9.33;8.38;;;;;;;13.63;78.10;95323.31;1728708;82;20990;-82
2021/05/17 11:57:12;;;;;;;9.73;7.22;;;;;;;13.56;78.01;95320.54;1728040;80;20961;-82
2021/05/17 11:59:38;;;;;;;10.23;8.20;;;;;;;13.56;78.37;95318.72;1717348;82;21327;-82
2021/05/17 12:02:14;;;;;;;12.73;7.67;;;;;;;13.60;78.88;95315.94;1725797;82;20962;-82
2021/05/17 12:04:43;;;;;;;11.05;7.60;;;;;;;13.65;78.73;95322.57;1744123;82;21299;-82
2021/05/17 12:07:17;;;;;;;10.60;7.78;;;;;;;13.59;78.64;95317.47;1738435;80;20970;-82
2021/05/17 12:09:51;;;;;;;8.38;7.35;;;;;;;13.62;78.61;95323.02;1750311;80;20966;-82